Ayr, ND (58007)

1:12 AM CDT on July 28, 2016 (GMT -0500)
Home of the Absaraka Crows | | Change Station

Elev 1066 ft 46.98 °N, 97.39 °W | Updated 10 seconds ago

Mostly Cloudy
Mostly Cloudy
63.3 °F
Feels Like 63.3 °F
N
2.2
Wind Variable Wind from West
Gusts 5.4 mph

Today
High -- | Low -- °F
--% Chance of Precip.
Yesterday
High -- | Low -- °F
Precip. -- in
Pressure 30.13 in
Visibility 10.0 miles
Clouds Mostly Cloudy 4300 ft
Dew Point 60 °F
Humidity 90%
Rainfall 0.00 in
Snow Depth Not available.
6:05 AM 9:07 PM
Waning Crescent, 35% visible
METAR KBAC 280555Z AUTO 35005KT 10SM BKN043 16/16 A3013 RMK AO2
Pressure 30.13 in
Visibility 10.0 miles
Clouds Mostly Cloudy 4300 ft
Dew Point 60 °F
Humidity 90%
Rainfall 0.00 in
Snow Depth Not available.
6:05 AM 9:07 PM
Waning Crescent, 35% visible
METAR KBAC 280555Z AUTO 35005KT 10SM BKN043 16/16 A3013 RMK AO2

10-Day Weather Forecast

Almanac

Astronomy

Jul. 28, 2016 Rise Set
Actual Time
Civil Twilight
Nautical Twilight
Astronomical Twilight
Moon
Length of Visible Light
Length of Day
Tomorrow will be .
, % of the Moon is Illuminated

Today's Extremes

State Highs State Lows

Community

WunderPhotos

Upload Photos

1,928,064 photos uploaded!

WunderBlog® & News

Nearby

Air Quality

  Air Quality AQ Index Pollutant
Not available.

Snow Depth

Station Depth Elevation

Earthquake Activity

City Distance Mag. Time & Date
Minimum magnitude displayed is 2.5.

Coastal Water Temperatures

Place Temperature

Stations

Nearby Weather Stations

Station Location Temp. Windchill Dew Point Humidity Wind Precip. Elev Updated Type
                   

Watches & Warnings

There are currently no watches in effect.